createdAt,value
2023-03-11T00:00:00.738Z,97571.91
2023-03-11T00:01:02.833Z,97575.00
2023-03-11T00:02:05.101Z,97574.75
2023-03-11T00:03:08.999Z,97567.72
2023-03-11T00:04:11.010Z,97566.69
2023-03-11T00:05:23.338Z,97569.81
2023-03-11T00:06:25.259Z,97570.84
2023-03-11T00:07:27.476Z,97569.81
2023-03-11T00:08:29.791Z,97564.56
2023-03-11T00:09:31.747Z,97566.66
2023-03-11T00:10:37.216Z,97567.44
2023-03-11T00:11:39.156Z,97562.47
2023-03-11T00:12:41.478Z,97564.06
2023-03-11T00:13:43.324Z,97566.12
2023-03-11T00:14:45.217Z,97571.34
2023-03-11T00:15:49.798Z,97580.22
2023-03-11T00:16:51.649Z,97572.91
2023-03-11T00:17:53.902Z,97570.06
2023-03-11T00:18:55.941Z,97570.81
2023-03-11T00:19:57.816Z,97575.75
2023-03-11T00:21:01.057Z,97575.00
2023-03-11T00:22:03.355Z,97582.81
2023-03-11T00:23:07.802Z,97570.28
2023-03-11T00:24:09.902Z,97573.41
2023-03-11T00:25:12.966Z,97573.69
2023-03-11T00:26:15.000Z,97573.44
2023-03-11T00:27:16.874Z,97571.06
2023-03-11T00:28:19.019Z,97576.03
2023-03-11T00:29:20.905Z,97572.91
2023-03-11T00:30:23.509Z,97576.56
2023-03-11T00:31:26.633Z,97579.16
2023-03-11T00:32:28.832Z,97576.81
2023-03-11T00:33:31.442Z,97574.19
2023-03-11T00:34:33.349Z,97585.94
2023-03-11T00:35:36.539Z,97581.50
2023-03-11T00:36:38.450Z,97578.13
2023-03-11T00:37:40.353Z,97579.41
2023-03-11T00:38:42.577Z,97582.81
2023-03-11T00:39:44.480Z,97583.88
2023-03-11T00:40:47.971Z,97588.31
2023-03-11T00:41:50.790Z,97577.87
2023-03-11T00:42:53.047Z,97584.41
2023-03-11T00:43:55.234Z,97580.75
2023-03-11T00:44:57.127Z,97570.31
2023-03-11T00:45:58.990Z,97572.38
2023-03-11T00:47:00.991Z,97581.25
2023-03-11T00:48:03.562Z,97575.28
2023-03-11T00:49:05.742Z,97585.94
2023-03-11T00:50:09.681Z,97588.56
2023-03-11T00:51:15.785Z,97583.09
2023-03-11T00:52:18.343Z,97584.41
2023-03-11T00:53:20.233Z,97585.94
2023-03-11T00:54:22.463Z,97580.72
2023-03-11T00:55:30.409Z,97583.88
2023-03-11T00:56:32.662Z,97585.44
2023-03-11T00:57:34.562Z,97577.06
2023-03-11T00:58:37.145Z,97582.81
2023-03-11T00:59:39.429Z,97588.03
2023-03-11T01:00:41.740Z,97577.06
2023-03-11T01:01:43.730Z,97583.09
2023-03-11T01:02:46.063Z,97581.78
2023-03-11T01:03:47.941Z,97579.44
2023-03-11T01:04:55.846Z,97582.56
2023-03-11T01:05:57.732Z,97580.47
2023-03-11T01:06:59.918Z,97572.38
2023-03-11T01:08:03.006Z,97579.19
2023-03-11T01:09:05.719Z,97575.50
2023-03-11T01:10:09.427Z,97571.06
2023-03-11T01:11:11.371Z,97576.56
2023-03-11T01:12:13.342Z,97575.00
2023-03-11T01:13:15.270Z,97570.28
2023-03-11T01:14:17.608Z,97574.97
2023-03-11T01:15:24.102Z,97571.84
2023-03-11T01:16:26.029Z,97583.84
2023-03-11T01:17:27.966Z,97571.84
2023-03-11T01:18:29.906Z,97570.06
2023-03-11T01:19:31.756Z,97574.22
2023-03-11T01:20:34.549Z,97574.19
2023-03-11T01:21:36.423Z,97568.69
2023-03-11T01:22:38.440Z,97567.38
2023-03-11T01:23:41.154Z,97569.75
2023-03-11T01:24:43.069Z,97560.13
2023-03-11T01:25:45.250Z,97557.78
2023-03-11T01:26:47.261Z,97572.88
2023-03-11T01:27:49.973Z,97567.16
2023-03-11T01:28:51.838Z,97565.59
2023-03-11T01:29:53.777Z,97565.06
2023-03-11T01:30:56.106Z,97559.31
2023-03-11T01:31:59.261Z,97566.62
2023-03-11T01:33:02.368Z,97566.62
2023-03-11T01:34:04.261Z,97561.69
2023-03-11T01:35:06.561Z,97557.25
2023-03-11T01:36:09.119Z,97558.78
2023-03-11T01:37:11.059Z,97559.59
2023-03-11T01:38:13.199Z,97548.34
2023-03-11T01:39:15.053Z,97555.16
2023-03-11T01:40:26.881Z,97556.19
2023-03-11T01:41:30.873Z,97554.63
2023-03-11T01:42:32.967Z,97549.94
2023-03-11T01:43:55.609Z,97554.34
2023-03-11T01:44:58.354Z,97555.66
2023-03-11T01:46:02.227Z,97560.59
2023-03-11T01:47:04.627Z,97554.59
2023-03-11T01:48:09.414Z,97550.41
2023-03-11T01:49:12.923Z,97547.81
2023-03-11T01:50:14.822Z,97554.59
2023-03-11T01:51:41.173Z,97550.91
2023-03-11T01:52:44.963Z,97553.03
2023-03-11T01:53:47.301Z,97556.69
2023-03-11T01:54:51.820Z,97556.16
2023-03-11T01:55:54.497Z,97559.81
2023-03-11T01:56:57.577Z,97554.34
2023-03-11T01:58:05.550Z,97553.03
2023-03-11T01:59:11.534Z,97551.22
2023-03-11T02:00:17.583Z,97546.78
2023-03-11T02:01:22.917Z,97542.34
2023-03-11T02:02:41.890Z,97544.72
2023-03-11T02:03:44.048Z,97554.63
2023-03-11T02:04:47.321Z,97552.53
2023-03-11T02:05:51.473Z,97554.31
2023-03-11T02:06:54.271Z,97554.06
2023-03-11T02:07:58.234Z,97548.81
2023-03-11T02:09:01.424Z,97562.87
2023-03-11T02:10:03.472Z,97563.91
2023-03-11T02:11:08.851Z,97563.94
2023-03-11T02:12:14.994Z,97563.38
2023-03-11T02:13:17.179Z,97568.06
2023-03-11T02:14:20.433Z,97570.94
2023-03-11T02:15:22.511Z,97570.66
2023-03-11T02:16:24.934Z,97569.06
2023-03-11T02:17:27.150Z,97571.69
2023-03-11T02:18:29.522Z,97572.22
2023-03-11T02:19:34.602Z,97580.03
2023-03-11T02:20:54.885Z,97569.06
2023-03-11T02:21:57.719Z,97585.00
2023-03-11T02:23:02.320Z,97581.62
2023-03-11T02:24:26.058Z,97585.81
2023-03-11T02:25:31.629Z,97586.28
2023-03-11T02:26:49.150Z,97578.50
2023-03-11T02:27:54.278Z,97584.22
2023-03-11T02:28:59.036Z,97586.06
2023-03-11T02:30:02.383Z,97575.88
2023-03-11T02:31:08.189Z,97575.91
2023-03-11T02:32:11.579Z,97578.53
2023-03-11T02:33:16.911Z,97589.94
2023-03-11T02:34:25.206Z,97575.41
2023-03-11T02:35:27.356Z,97586.06
2023-03-11T02:36:38.873Z,97575.63
2023-03-11T02:37:48.230Z,97574.81
2023-03-11T02:38:50.826Z,97578.47
2023-03-11T02:39:54.996Z,97582.38
2023-03-11T02:41:00.320Z,97586.59
2023-03-11T02:42:06.070Z,97577.75
2023-03-11T02:43:11.742Z,97576.75
2023-03-11T02:44:16.521Z,97573.88
2023-03-11T02:45:22.607Z,97584.03
2023-03-11T02:46:25.092Z,97580.88
2023-03-11T02:47:27.686Z,97580.62
2023-03-11T02:48:30.684Z,97586.66
2023-03-11T02:49:33.281Z,97577.56
2023-03-11T02:50:37.202Z,97575.97
2023-03-11T02:51:39.250Z,97582.16
2023-03-11T02:52:41.514Z,97566.31
2023-03-11T02:53:51.777Z,97585.34
2023-03-11T02:54:54.085Z,97581.41
2023-03-11T02:55:55.960Z,97580.38
2023-03-11T02:56:58.441Z,97577.22
2023-03-11T02:58:01.494Z,97576.75
2023-03-11T02:59:03.463Z,97575.69
2023-03-11T03:00:15.110Z,97581.66
2023-03-11T03:01:17.300Z,97577.50
2023-03-11T03:02:19.648Z,97577.19
2023-03-11T03:03:21.864Z,97583.72
2023-03-11T03:04:23.913Z,97581.09
2023-03-11T03:05:26.330Z,97583.41
2023-03-11T03:06:28.728Z,97566.28
2023-03-11T03:07:30.707Z,97571.19
2023-03-11T03:08:32.591Z,97567.81
2023-03-11T03:09:36.673Z,97561.81
2023-03-11T03:10:39.009Z,97573.03
2023-03-11T03:11:40.899Z,97554.56
2023-03-11T03:12:43.556Z,97575.91
2023-03-11T03:13:45.442Z,97560.50
2023-03-11T03:14:47.447Z,97570.41
2023-03-11T03:15:50.378Z,97567.03
2023-03-11T03:16:52.339Z,97573.81
2023-03-11T03:17:54.261Z,97584.97
2023-03-11T03:18:56.885Z,97586.00
2023-03-11T03:20:00.056Z,97575.59
2023-03-11T03:21:02.508Z,97578.28
2023-03-11T03:22:04.489Z,97581.16
2023-03-11T03:23:07.529Z,97564.97
2023-03-11T03:24:09.424Z,97579.56
2023-03-11T03:25:11.558Z,97580.13
2023-03-11T03:26:14.828Z,97579.34
2023-03-11T03:27:17.094Z,97580.16
2023-03-11T03:28:19.288Z,97576.97
2023-03-11T03:29:21.357Z,97573.38
2023-03-11T03:30:23.677Z,97588.47
2023-03-11T03:31:27.558Z,97590.03
2023-03-11T03:32:29.620Z,97588.16
2023-03-11T03:33:32.489Z,97595.72
2023-03-11T03:34:35.042Z,97594.72
2023-03-11T03:35:42.122Z,97592.94
2023-03-11T03:36:44.425Z,97614.53
2023-03-11T03:37:46.402Z,97608.97
2023-03-11T03:38:48.565Z,97607.47
2023-03-11T03:39:50.577Z,97596.25
2023-03-11T03:40:52.624Z,97605.34
2023-03-11T03:41:55.014Z,97598.59
2023-03-11T03:42:57.296Z,97602.75
2023-03-11T03:43:59.916Z,97617.66
2023-03-11T03:45:03.260Z,97616.63
2023-03-11T03:46:06.231Z,97605.13
2023-03-11T03:47:09.655Z,97620.78
2023-03-11T03:48:11.659Z,97615.84
2023-03-11T03:49:14.072Z,97620.50
2023-03-11T03:50:15.966Z,97607.19
2023-03-11T03:51:18.879Z,97603.28
2023-03-11T03:52:21.759Z,97604.31
2023-03-11T03:53:23.812Z,97604.56
2023-03-11T03:54:25.842Z,97600.19
2023-03-11T03:55:27.880Z,97604.31
2023-03-11T03:56:30.485Z,97605.41
2023-03-11T03:57:32.959Z,97606.44
2023-03-11T03:58:36.046Z,97616.03
2023-03-11T03:59:38.140Z,97617.06
2023-03-11T04:00:40.052Z,97628.03
2023-03-11T04:01:42.162Z,97609.50
2023-03-11T04:02:44.753Z,97620.16
2023-03-11T04:03:47.650Z,97621.16
2023-03-11T04:04:50.055Z,97623.25
2023-03-11T04:05:52.026Z,97624.22
2023-03-11T04:06:54.687Z,97619.25
2023-03-11T04:07:56.567Z,97620.28
2023-03-11T04:08:58.506Z,97614.28
2023-03-11T04:10:01.858Z,97622.41
2023-03-11T04:11:05.973Z,97626.59
2023-03-11T04:12:15.234Z,97627.09
2023-03-11T04:13:17.194Z,97628.97
2023-03-11T04:14:19.675Z,97636.75
2023-03-11T04:15:22.730Z,97635.50
2023-03-11T04:16:25.180Z,97639.53
2023-03-11T04:17:27.738Z,97623.97
2023-03-11T04:18:30.384Z,97640.38
2023-03-11T04:19:32.917Z,97643.19
2023-03-11T04:20:34.834Z,97655.19
2023-03-11T04:21:38.026Z,97654.22
2023-03-11T04:22:40.407Z,97662.06
2023-03-11T04:23:42.452Z,97665.81
2023-03-11T04:24:45.001Z,97655.47
2023-03-11T04:25:46.973Z,97667.41
2023-03-11T04:26:48.943Z,97668.94
2023-03-11T04:27:52.371Z,97670.94
2023-03-11T04:28:54.606Z,97684.03
2023-03-11T04:29:57.009Z,97654.13
2023-03-11T04:30:59.058Z,97682.50
2023-03-11T04:32:01.057Z,97673.91
2023-03-11T04:33:03.668Z,97683.00
2023-03-11T04:34:06.578Z,97685.50
2023-03-11T04:35:09.369Z,97662.19
2023-03-11T04:36:12.677Z,97679.94
2023-03-11T04:37:14.598Z,97680.19
2023-03-11T04:38:16.844Z,97678.34
2023-03-11T04:39:18.792Z,97673.41
2023-03-11T04:40:21.164Z,97682.09
2023-03-11T04:41:23.582Z,97675.75
2023-03-11T04:42:25.585Z,97673.94
2023-03-11T04:43:28.200Z,97663.59
2023-03-11T04:44:30.060Z,97674.94
2023-03-11T04:45:32.231Z,97667.41
2023-03-11T04:46:34.740Z,97679.84
2023-03-11T04:47:36.950Z,97673.19
2023-03-11T04:48:39.759Z,97666.06
2023-03-11T04:49:42.130Z,97662.97
2023-03-11T04:50:46.175Z,97662.97
2023-03-11T04:51:49.430Z,97670.31
2023-03-11T04:52:51.518Z,97663.44
2023-03-11T04:53:53.890Z,97663.31
2023-03-11T04:54:55.809Z,97649.75
2023-03-11T04:55:57.936Z,97663.03
2023-03-11T04:56:59.817Z,97653.91
2023-03-11T04:58:02.266Z,97649.19
2023-03-11T04:59:04.869Z,97652.44
2023-03-11T05:00:12.514Z,97652.97
2023-03-11T05:01:15.727Z,97649.09
2023-03-11T05:02:17.646Z,97644.94
2023-03-11T05:03:20.859Z,97660.53
2023-03-11T05:04:23.307Z,97668.34
2023-03-11T05:05:25.405Z,97655.88
2023-03-11T05:06:27.293Z,97669.84
2023-03-11T05:07:29.477Z,97661.63
2023-03-11T05:08:31.577Z,97676.47
2023-03-11T05:09:35.337Z,97663.75
2023-03-11T05:10:39.580Z,97671.69
2023-03-11T05:11:41.809Z,97667.97
2023-03-11T05:12:44.142Z,97657.53
2023-03-11T05:13:45.998Z,97662.91
2023-03-11T05:14:48.408Z,97667.03
2023-03-11T05:15:50.466Z,97671.91
2023-03-11T05:16:52.359Z,97672.03
2023-03-11T05:17:54.427Z,97683.50
2023-03-11T05:18:56.458Z,97688.25
2023-03-11T05:19:58.696Z,97691.75
2023-03-11T05:21:00.825Z,97694.44
2023-03-11T05:22:04.068Z,97691.56
2023-03-11T05:23:06.370Z,97697.25
2023-03-11T05:24:08.994Z,97683.63
2023-03-11T05:25:11.421Z,97686.31
2023-03-11T05:26:13.389Z,97695.91
2023-03-11T05:27:18.135Z,97693.13
2023-03-11T05:28:20.813Z,97693.28
2023-03-11T05:29:25.017Z,97700.00
2023-03-11T05:30:27.896Z,97691.34
2023-03-11T05:31:32.068Z,97682.59
2023-03-11T05:32:34.034Z,97704.13
2023-03-11T05:33:36.708Z,97698.63
2023-03-11T05:34:39.227Z,97711.69
2023-03-11T05:35:43.284Z,97706.50
2023-03-11T05:36:45.488Z,97706.91
2023-03-11T05:37:49.841Z,97707.81
2023-03-11T05:38:53.289Z,97719.50
2023-03-11T05:39:55.531Z,97725.34
2023-03-11T05:40:57.875Z,97713.87
2023-03-11T05:41:59.928Z,97723.78
2023-03-11T05:43:02.177Z,97712.47
2023-03-11T05:44:05.048Z,97720.81
2023-03-11T05:45:07.841Z,97721.19
2023-03-11T05:46:11.905Z,97730.53
2023-03-11T05:47:13.884Z,97731.38
2023-03-11T05:48:16.146Z,97731.66
2023-03-11T05:49:18.158Z,97744.34
2023-03-11T05:50:20.420Z,97752.50
2023-03-11T05:51:22.793Z,97755.50
2023-03-11T05:52:24.764Z,97763.31
2023-03-11T05:53:26.779Z,97743.88
2023-03-11T05:54:29.137Z,97763.16
2023-03-11T05:55:31.046Z,97743.47
2023-03-11T05:56:35.912Z,97747.13
2023-03-11T05:57:39.408Z,97745.87
2023-03-11T05:58:42.214Z,97746.97
2023-03-11T05:59:44.808Z,97763.66
2023-03-11T06:00:47.034Z,97736.59
2023-03-11T06:01:49.401Z,97743.03
2023-03-11T06:02:51.540Z,97753.81
2023-03-11T06:03:53.896Z,97730.37
2023-03-11T06:04:56.000Z,97747.09
2023-03-11T06:05:58.036Z,97720.47
2023-03-11T06:07:00.339Z,97753.34
2023-03-11T06:08:02.763Z,97746.97
2023-03-11T06:09:04.791Z,97747.78
2023-03-11T06:10:07.366Z,97745.19
2023-03-11T06:11:10.927Z,97738.63
2023-03-11T06:12:13.328Z,97741.38
2023-03-11T06:13:21.212Z,97740.00
2023-03-11T06:14:23.192Z,97749.47
2023-03-11T06:15:25.494Z,97771.19
2023-03-11T06:16:27.756Z,97761.19
2023-03-11T06:17:33.096Z,97760.03
2023-03-11T06:18:36.664Z,97764.50
2023-03-11T06:19:39.719Z,97766.47
2023-03-11T06:20:41.938Z,97761.59
2023-03-11T06:21:43.874Z,97760.03
2023-03-11T06:22:48.799Z,97763.25
2023-03-11T06:23:51.085Z,97756.19
2023-03-11T06:24:53.399Z,97766.16
2023-03-11T06:26:04.029Z,97763.13
2023-03-11T06:27:11.263Z,97759.72
2023-03-11T06:28:14.029Z,97776.41
2023-03-11T06:29:16.647Z,97766.00
2023-03-11T06:30:20.234Z,97780.09
2023-03-11T06:31:28.431Z,97776.09
2023-03-11T06:32:31.729Z,97785.63
2023-03-11T06:33:33.960Z,97792.06
2023-03-11T06:34:37.611Z,97786.00
2023-03-11T06:35:41.265Z,97791.28
2023-03-11T06:36:43.731Z,97802.94
2023-03-11T06:37:45.595Z,97801.91
2023-03-11T06:38:50.050Z,97813.31
2023-03-11T06:39:53.510Z,97812.75
2023-03-11T06:40:59.286Z,97809.16
2023-03-11T06:42:01.176Z,97814.28
2023-03-11T06:43:03.874Z,97796.72
2023-03-11T06:44:06.536Z,97804.72
2023-03-11T06:45:09.124Z,97811.81
2023-03-11T06:46:19.634Z,97815.91
2023-03-11T06:47:21.719Z,97829.06
2023-03-11T06:48:24.342Z,97823.28
2023-03-11T06:49:28.172Z,97825.12
2023-03-11T06:50:30.146Z,97835.44
2023-03-11T06:51:34.228Z,97842.03
2023-03-11T06:52:38.510Z,97824.91
2023-03-11T06:53:41.950Z,97829.09
2023-03-11T06:54:46.004Z,97834.72
2023-03-11T06:56:02.546Z,97839.97
2023-03-11T06:57:07.830Z,97843.56
2023-03-11T06:58:09.904Z,97846.28
2023-03-11T06:59:11.848Z,97851.78
2023-03-11T07:00:15.220Z,97848.81
2023-03-11T07:01:20.403Z,97845.59
2023-03-11T07:02:24.058Z,97853.16
2023-03-11T07:03:26.007Z,97844.63
2023-03-11T07:04:28.257Z,97853.53
2023-03-11T07:05:30.522Z,97851.94
2023-03-11T07:06:33.510Z,97841.00
2023-03-11T07:07:35.797Z,97851.87
2023-03-11T07:08:37.984Z,97826.47
2023-03-11T07:09:39.943Z,97833.53
2023-03-11T07:10:42.736Z,97844.50
2023-03-11T07:11:44.868Z,97828.28
2023-03-11T07:12:47.392Z,97839.28
2023-03-11T07:13:49.724Z,97827.97
2023-03-11T07:14:59.454Z,97843.94
2023-03-11T07:16:05.427Z,97833.91
2023-03-11T07:17:07.608Z,97836.00
2023-03-11T07:18:10.159Z,97850.31
2023-03-11T07:19:12.654Z,97840.34
2023-03-11T07:20:14.565Z,97849.75
2023-03-11T07:21:19.995Z,97837.13
2023-03-11T07:22:22.168Z,97841.44
2023-03-11T07:23:24.693Z,97844.87
2023-03-11T07:24:26.559Z,97846.88
2023-03-11T07:25:28.437Z,97844.84
2023-03-11T07:26:33.299Z,97835.25
2023-03-11T07:27:35.125Z,97837.53
2023-03-11T07:28:38.002Z,97840.91
2023-03-11T07:29:39.846Z,97839.72
2023-03-11T07:30:41.685Z,97836.53
2023-03-11T07:31:43.909Z,97832.38
2023-03-11T07:32:45.799Z,97838.81
2023-03-11T07:33:47.691Z,97824.72
2023-03-11T07:34:49.655Z,97832.22
2023-03-11T07:35:52.093Z,97838.53
2023-03-11T07:36:54.373Z,97841.81
2023-03-11T07:37:56.309Z,97818.28
2023-03-11T07:39:04.728Z,97833.16
2023-03-11T07:40:07.314Z,97841.50
2023-03-11T07:41:11.305Z,97840.59
2023-03-11T07:42:13.496Z,97832.31
2023-03-11T07:43:15.446Z,97831.91
2023-03-11T07:44:18.532Z,97856.69
2023-03-11T07:45:20.433Z,97862.47
2023-03-11T07:46:24.170Z,97843.87
2023-03-11T07:47:26.423Z,97860.38
2023-03-11T07:48:28.278Z,97850.72
2023-03-11T07:49:30.156Z,97859.75
2023-03-11T07:50:32.036Z,97849.56
2023-03-11T07:51:35.568Z,97842.81
2023-03-11T07:52:38.024Z,97850.22
2023-03-11T07:53:43.596Z,97862.03
2023-03-11T07:54:45.470Z,97861.97
2023-03-11T07:55:47.360Z,97854.03
2023-03-11T07:56:49.386Z,97868.94
2023-03-11T07:57:51.743Z,97858.72
2023-03-11T07:58:53.914Z,97861.63
2023-03-11T07:59:55.758Z,97869.72
2023-03-11T08:01:04.400Z,97856.66
2023-03-11T08:02:07.213Z,97863.53
2023-03-11T08:03:09.097Z,97883.34
2023-03-11T08:04:14.306Z,97876.84
2023-03-11T08:05:16.561Z,97857.09
2023-03-11T08:06:24.136Z,97876.38
2023-03-11T08:07:26.425Z,97868.81
2023-03-11T08:08:28.669Z,97879.22
2023-03-11T08:09:30.600Z,97873.16
2023-03-11T08:10:32.470Z,97891.28
2023-03-11T08:11:34.483Z,97881.53
2023-03-11T08:12:36.770Z,97863.91
2023-03-11T08:13:38.983Z,97881.72
2023-03-11T08:14:41.190Z,97869.44
2023-03-11T08:15:43.166Z,97881.25
2023-03-11T08:16:45.180Z,97882.50
2023-03-11T08:17:47.373Z,97900.06
2023-03-11T08:18:50.376Z,97898.41
2023-03-11T08:19:52.259Z,97884.06
2023-03-11T08:20:55.393Z,97875.69
2023-03-11T08:21:57.413Z,97876.81
2023-03-11T08:22:59.781Z,97878.88
2023-03-11T08:24:03.391Z,97886.69
2023-03-11T08:25:06.520Z,97879.34
2023-03-11T08:26:10.844Z,97889.75
2023-03-11T08:27:12.776Z,97909.00
2023-03-11T08:28:15.077Z,97901.25
2023-03-11T08:29:17.012Z,97907.84
2023-03-11T08:30:19.092Z,97911.72
2023-03-11T08:31:27.438Z,97910.47
2023-03-11T08:32:31.614Z,97910.19
2023-03-11T08:33:34.157Z,97917.09
2023-03-11T08:34:36.367Z,97917.66
2023-03-11T08:35:38.747Z,97918.19
2023-03-11T08:36:40.866Z,97921.16
2023-03-11T08:37:42.699Z,97920.87
2023-03-11T08:38:45.283Z,97912.03
2023-03-11T08:39:47.279Z,97928.06
2023-03-11T08:40:49.208Z,97917.72
2023-03-11T08:41:51.099Z,97921.97
2023-03-11T08:42:55.076Z,97907.59
2023-03-11T08:43:57.267Z,97915.75
2023-03-11T08:44:59.285Z,97935.69
2023-03-11T08:46:03.216Z,97904.53
2023-03-11T08:47:05.238Z,97916.91
2023-03-11T08:48:09.223Z,97910.63
2023-03-11T08:49:11.413Z,97876.94
2023-03-11T08:50:16.088Z,97914.16
2023-03-11T08:51:18.433Z,97929.94
2023-03-11T08:52:20.350Z,97904.56
2023-03-11T08:53:23.084Z,97926.31
2023-03-11T08:54:25.271Z,97938.06
2023-03-11T08:55:28.592Z,97904.41
2023-03-11T08:56:30.475Z,97926.91
2023-03-11T08:57:32.447Z,97927.87
2023-03-11T08:58:34.498Z,97927.78
2023-03-11T08:59:36.758Z,97941.13
2023-03-11T09:00:38.829Z,97950.81
2023-03-11T09:01:42.385Z,97959.31
2023-03-11T09:02:44.307Z,97955.75
2023-03-11T09:03:46.300Z,97969.47
2023-03-11T09:04:50.508Z,97973.63
2023-03-11T09:05:58.186Z,97976.88
2023-03-11T09:07:00.134Z,97954.31
2023-03-11T09:08:05.416Z,97975.44
2023-03-11T09:09:07.585Z,97980.00
2023-03-11T09:10:14.100Z,97953.56
2023-03-11T09:11:17.922Z,97967.28
2023-03-11T09:12:19.783Z,97960.47
2023-03-11T09:13:21.955Z,97945.63
2023-03-11T09:14:23.838Z,97960.81
2023-03-11T09:15:26.034Z,97939.16
2023-03-11T09:16:28.012Z,97954.34
2023-03-11T09:17:29.893Z,97946.16
2023-03-11T09:18:31.765Z,97959.47
2023-03-11T09:19:33.974Z,97949.34
2023-03-11T09:20:38.678Z,97936.03
2023-03-11T09:21:40.574Z,97909.06
2023-03-11T09:22:42.492Z,97911.72
2023-03-11T09:23:44.760Z,97922.28
2023-03-11T09:24:46.690Z,97925.44
2023-03-11T09:25:49.147Z,97908.84
2023-03-11T09:26:51.034Z,97912.72
2023-03-11T09:27:52.882Z,97896.03
2023-03-11T09:28:54.867Z,97894.16
2023-03-11T09:29:56.784Z,97881.25
2023-03-11T09:30:58.961Z,97890.41
2023-03-11T09:32:00.810Z,97926.44
2023-03-11T09:33:02.730Z,97918.78
2023-03-11T09:34:04.814Z,97905.78
2023-03-11T09:35:06.833Z,97906.47
2023-03-11T09:36:13.718Z,97916.81
2023-03-11T09:37:15.676Z,97912.44
2023-03-11T09:38:17.476Z,97921.03
2023-03-11T09:39:19.394Z,97916.94
2023-03-11T09:40:22.980Z,97919.81
2023-03-11T09:41:57.882Z,97919.91
2023-03-11T09:43:21.112Z,97909.84
2023-03-11T09:45:00.968Z,97923.28
2023-03-11T09:46:38.982Z,97924.06
2023-03-11T09:48:11.874Z,97929.28
2023-03-11T09:49:28.829Z,97933.19
2023-03-11T09:50:35.231Z,97942.75
2023-03-11T09:51:43.340Z,97960.00
2023-03-11T09:53:00.470Z,97948.84
2023-03-11T09:54:05.937Z,97953.16
2023-03-11T09:55:38.227Z,97958.28
2023-03-11T09:56:44.446Z,97974.59
2023-03-11T09:57:47.845Z,97975.44
2023-03-11T09:58:52.639Z,97970.16
2023-03-11T09:59:55.228Z,97970.00
2023-03-11T10:00:57.307Z,97975.22
2023-03-11T10:02:00.793Z,97966.16
2023-03-11T10:03:03.895Z,97969.69
2023-03-11T10:04:18.817Z,97980.38
2023-03-11T10:05:29.317Z,97988.47
2023-03-11T10:06:31.604Z,97992.72
2023-03-11T10:07:39.655Z,97983.69
2023-03-11T10:08:57.138Z,97972.78
2023-03-11T10:09:59.966Z,97997.63
2023-03-11T10:11:35.589Z,97979.66
2023-03-11T10:13:03.875Z,97986.78
2023-03-11T10:14:42.884Z,97990.06
2023-03-11T10:15:55.662Z,97985.50
2023-03-11T10:17:29.850Z,97981.97
2023-03-11T10:18:44.175Z,98001.28
2023-03-11T10:20:00.278Z,97986.72
2023-03-11T10:21:21.151Z,97993.00
2023-03-11T10:22:37.494Z,97986.13
2023-03-11T10:23:54.411Z,97991.00
2023-03-11T10:25:12.474Z,97992.03
2023-03-11T10:26:39.973Z,97988.97
2023-03-11T10:27:42.093Z,97973.50
2023-03-11T10:29:28.971Z,97968.22
2023-03-11T10:30:33.598Z,97972.91
2023-03-11T10:31:43.916Z,97967.00
2023-03-11T10:33:01.035Z,97973.87
2023-03-11T10:34:13.982Z,97973.56
2023-03-11T10:35:22.637Z,97968.81
2023-03-11T10:36:31.372Z,97977.38
2023-03-11T10:37:49.436Z,97965.16
2023-03-11T10:38:54.008Z,97983.31
2023-03-11T10:40:02.776Z,97973.50
2023-03-11T10:41:13.386Z,97970.34
2023-03-11T10:42:20.380Z,97976.81
2023-03-11T10:43:29.065Z,97988.31
2023-03-11T10:44:40.020Z,97992.94
2023-03-11T10:45:44.885Z,98001.66
2023-03-11T10:46:47.631Z,97998.34
2023-03-11T10:47:49.793Z,98000.81
2023-03-11T10:48:51.677Z,98008.19
2023-03-11T10:49:53.766Z,97997.13
2023-03-11T10:51:38.313Z,97987.31
2023-03-11T10:53:03.366Z,98003.78
2023-03-11T10:54:05.572Z,97999.28
2023-03-11T10:55:07.719Z,98013.97
2023-03-11T10:56:29.983Z,98013.41
2023-03-11T10:57:38.161Z,98015.62
2023-03-11T10:58:49.055Z,98040.25
2023-03-11T11:00:09.703Z,98029.16
2023-03-11T11:01:18.730Z,98011.00
2023-03-11T11:02:27.621Z,98031.66
2023-03-11T11:03:29.786Z,98016.19
2023-03-11T11:04:40.629Z,98021.41
2023-03-11T11:05:42.597Z,98026.59
2023-03-11T11:06:44.718Z,98019.25
2023-03-11T11:07:48.833Z,98026.81
2023-03-11T11:09:04.727Z,98040.00
2023-03-11T11:10:12.517Z,98035.59
2023-03-11T11:11:25.116Z,98032.84
2023-03-11T11:12:27.299Z,98034.25
2023-03-11T11:13:37.037Z,98053.31
2023-03-11T11:14:43.704Z,98047.47
2023-03-11T11:16:02.013Z,98049.63
2023-03-11T11:17:03.890Z,98055.41
2023-03-11T11:18:23.351Z,98039.38
2023-03-11T11:19:27.381Z,98045.34
2023-03-11T11:20:30.817Z,98053.25
2023-03-11T11:21:34.092Z,98025.81
2023-03-11T11:22:35.998Z,98045.66
2023-03-11T11:23:42.529Z,98038.12
2023-03-11T11:24:46.645Z,98040.53
2023-03-11T11:26:01.626Z,98038.00
2023-03-11T11:27:23.051Z,98028.88
2023-03-11T11:28:25.657Z,98040.22
2023-03-11T11:29:27.814Z,98046.22
2023-03-11T11:30:30.091Z,98048.03
2023-03-11T11:31:32.066Z,98031.31
2023-03-11T11:32:34.054Z,98040.91
2023-03-11T11:33:56.228Z,98034.87
2023-03-11T11:34:58.555Z,98033.72
2023-03-11T11:36:04.137Z,98023.12
2023-03-11T11:37:10.643Z,98039.38
2023-03-11T11:38:12.518Z,98033.16
2023-03-11T11:39:20.320Z,98033.63
2023-03-11T11:40:31.621Z,98014.44
2023-03-11T11:41:36.722Z,98010.81
2023-03-11T11:42:43.108Z,98035.22
2023-03-11T11:43:55.953Z,98030.59
2023-03-11T11:45:03.633Z,98025.44
2023-03-11T11:46:35.710Z,98012.75
2023-03-11T11:47:44.097Z,98025.69
2023-03-11T11:49:07.421Z,98043.53
2023-03-11T11:50:36.743Z,98026.25
2023-03-11T11:51:42.869Z,98009.81
2023-03-11T11:52:51.804Z,98033.00
2023-03-11T11:54:07.268Z,98028.00
2023-03-11T11:55:23.963Z,98049.78
2023-03-11T11:56:26.925Z,98046.28
2023-03-11T11:57:29.735Z,98054.09
2023-03-11T11:58:31.865Z,98056.00
2023-03-11T11:59:33.736Z,98053.88
2023-03-11T12:00:41.623Z,98067.91
2023-03-11T12:02:03.860Z,98068.53
2023-03-11T12:03:16.106Z,98050.91
2023-03-11T12:04:37.868Z,98047.84
2023-03-11T12:05:56.753Z,98067.81
2023-03-11T12:07:10.347Z,98071.31
2023-03-11T12:08:35.186Z,98051.41
2023-03-11T12:09:49.325Z,98059.09
2023-03-11T12:10:57.075Z,98062.38
2023-03-11T12:12:14.157Z,98048.78
2023-03-11T12:13:40.442Z,98056.78
2023-03-11T12:14:51.509Z,98067.41
2023-03-11T12:16:05.208Z,98059.09
2023-03-11T12:17:10.750Z,98060.44
2023-03-11T12:18:55.208Z,98073.06
2023-03-11T12:20:03.540Z,98067.91
2023-03-11T12:21:27.458Z,98060.72
2023-03-11T12:23:07.772Z,98068.22
2023-03-11T12:24:24.501Z,98068.03
2023-03-11T12:25:36.767Z,98071.78
2023-03-11T12:26:42.465Z,98072.19
2023-03-11T12:27:53.550Z,98083.84
2023-03-11T12:29:06.920Z,98096.37
2023-03-11T12:30:20.171Z,98098.22
2023-03-11T12:31:24.806Z,98090.41
2023-03-11T12:32:29.483Z,98090.59
2023-03-11T12:33:37.199Z,98100.47
2023-03-11T12:34:39.301Z,98105.94
2023-03-11T12:35:49.979Z,98107.00
2023-03-11T12:36:53.069Z,98093.28
2023-03-11T12:38:13.294Z,98110.47
2023-03-11T12:39:29.726Z,98118.47
2023-03-11T12:40:58.350Z,98105.50
2023-03-11T12:42:20.536Z,98130.31
2023-03-11T12:43:25.393Z,98133.28
2023-03-11T12:44:30.032Z,98129.53
2023-03-11T12:45:51.289Z,98134.84